createdAt,value
2018-09-23T00:00:39.835Z,0.00
2018-09-23T00:01:39.790Z,0.00
2018-09-23T00:02:39.777Z,0.00
2018-09-23T00:03:39.783Z,0.00
2018-09-23T00:04:39.757Z,0.00
2018-09-23T00:05:39.747Z,0.00
2018-09-23T00:06:39.767Z,0.00
2018-09-23T00:07:39.726Z,0.00
2018-09-23T00:08:39.724Z,0.00
2018-09-23T00:09:39.700Z,0.00
2018-09-23T00:10:39.701Z,0.00
2018-09-23T00:11:39.686Z,0.00
2018-09-23T00:12:39.693Z,0.00
2018-09-23T00:13:39.680Z,0.00
2018-09-23T00:14:39.648Z,0.00
2018-09-23T00:15:39.634Z,0.00
2018-09-23T00:16:39.624Z,0.00
2018-09-23T00:17:39.613Z,0.00
2018-09-23T00:18:39.627Z,0.00
2018-09-23T00:19:39.609Z,0.00
2018-09-23T00:20:39.581Z,0.00
2018-09-23T00:21:39.570Z,0.00
2018-09-23T00:22:39.564Z,0.00
2018-09-23T00:23:39.548Z,0.00
2018-09-23T00:24:39.582Z,0.00
2018-09-23T00:25:39.530Z,0.00
2018-09-23T00:26:39.517Z,0.00
2018-09-23T00:27:39.505Z,0.00
2018-09-23T00:28:39.497Z,0.00
2018-09-23T00:29:39.501Z,0.00
2018-09-23T00:30:39.504Z,0.00
2018-09-23T00:31:39.463Z,0.00
2018-09-23T00:32:39.451Z,0.00
2018-09-23T00:33:39.445Z,0.00
2018-09-23T00:34:39.449Z,0.00
2018-09-23T00:35:39.424Z,0.00
2018-09-23T00:36:39.435Z,0.00
2018-09-23T00:37:39.398Z,0.00
2018-09-23T00:38:39.397Z,0.00
2018-09-23T00:39:39.394Z,0.00
2018-09-23T00:40:39.372Z,0.00
2018-09-23T00:41:39.400Z,0.00
2018-09-23T00:42:39.384Z,0.00
2018-09-23T00:43:39.336Z,0.00
2018-09-23T00:44:39.340Z,0.00
2018-09-23T00:45:39.313Z,0.00
2018-09-23T00:46:39.308Z,0.00
2018-09-23T00:47:39.295Z,0.00
2018-09-23T00:48:39.304Z,0.00
2018-09-23T00:49:39.300Z,0.00
2018-09-23T00:50:39.262Z,0.00
2018-09-23T00:51:39.259Z,0.00
2018-09-23T00:52:39.242Z,0.00
2018-09-23T00:53:39.234Z,0.00
2018-09-23T00:54:39.245Z,0.00
2018-09-23T00:55:39.222Z,0.00
2018-09-23T00:56:39.197Z,0.00
2018-09-23T00:57:39.187Z,0.00
2018-09-23T00:58:39.175Z,0.00
2018-09-23T00:59:39.164Z,0.00
2018-09-23T01:00:39.198Z,0.00
2018-09-23T01:01:39.147Z,0.00
2018-09-23T01:02:39.132Z,0.00
2018-09-23T01:03:39.120Z,0.00
2018-09-23T01:04:39.110Z,0.00
2018-09-23T01:05:39.120Z,0.00
2018-09-23T01:06:39.097Z,0.00
2018-09-23T01:07:39.099Z,0.00
2018-09-23T01:08:39.071Z,0.00
2018-09-23T01:09:39.061Z,0.00
2018-09-23T01:10:39.070Z,0.00
2018-09-23T01:11:39.041Z,0.00
2018-09-23T01:12:39.029Z,0.00
2018-09-23T01:13:39.037Z,0.00
2018-09-23T01:14:39.009Z,0.00
2018-09-23T01:15:38.996Z,0.00
2018-09-23T01:16:38.999Z,0.00
2018-09-23T01:17:39.003Z,0.00
2018-09-23T01:18:38.966Z,0.00
2018-09-23T01:19:38.954Z,0.00
2018-09-23T01:20:38.968Z,0.00
2018-09-23T01:21:38.944Z,0.00
2018-09-23T01:22:38.920Z,0.00
2018-09-23T01:23:38.909Z,0.00
2018-09-23T01:24:38.895Z,0.00
2018-09-23T01:25:38.891Z,0.00
2018-09-23T01:26:38.922Z,0.00
2018-09-23T01:27:38.865Z,0.00
2018-09-23T01:28:38.861Z,0.00
2018-09-23T01:29:38.839Z,0.00
2018-09-23T01:30:38.832Z,0.00
2018-09-23T01:31:38.839Z,0.00
2018-09-23T01:32:38.843Z,0.00
2018-09-23T01:33:38.811Z,0.00
2018-09-23T01:34:38.783Z,0.00
2018-09-23T01:35:38.778Z,0.00
2018-09-23T01:36:38.779Z,0.00
2018-09-23T01:37:38.752Z,0.00
2018-09-23T01:38:38.775Z,0.00
2018-09-23T01:39:38.738Z,0.00
2018-09-23T01:40:38.720Z,0.00
2018-09-23T01:41:38.725Z,0.00
2018-09-23T01:42:38.698Z,0.00
2018-09-23T01:43:38.689Z,0.00
2018-09-23T01:44:38.721Z,0.00
2018-09-23T01:45:38.666Z,0.00
2018-09-23T01:46:38.668Z,0.00
2018-09-23T01:47:38.647Z,0.00
2018-09-23T01:48:38.634Z,0.00
2018-09-23T01:49:38.626Z,0.00
2018-09-23T01:50:38.651Z,0.00
2018-09-23T01:51:38.619Z,0.00
2018-09-23T01:52:38.592Z,0.00
2018-09-23T01:53:38.577Z,0.00
2018-09-23T01:54:38.569Z,0.00
2018-09-23T01:55:38.563Z,0.00
2018-09-23T01:56:38.593Z,0.00
2018-09-23T01:57:38.550Z,0.00
2018-09-23T01:58:38.525Z,0.00
2018-09-23T01:59:38.517Z,0.00
2018-09-23T02:00:38.503Z,0.00
2018-09-23T02:01:38.495Z,0.00
2018-09-23T02:02:38.534Z,0.00
2018-09-23T02:03:38.472Z,0.00
2018-09-23T02:04:38.463Z,0.00
2018-09-23T02:05:38.452Z,0.00
2018-09-23T02:06:38.445Z,0.00
2018-09-23T02:07:38.443Z,0.00
2018-09-23T02:08:38.446Z,0.00
2018-09-23T02:09:38.426Z,0.00
2018-09-23T02:10:38.398Z,0.00
2018-09-23T02:11:38.386Z,0.00
2018-09-23T02:12:38.403Z,0.00
2018-09-23T02:13:38.365Z,0.00
2018-09-23T02:14:38.382Z,0.00
2018-09-23T02:15:38.346Z,0.00
2018-09-23T02:16:38.334Z,0.00
2018-09-23T02:17:38.339Z,0.00
2018-09-23T02:18:38.321Z,0.00
2018-09-23T02:19:38.307Z,0.00
2018-09-23T02:20:38.285Z,0.00
2018-09-23T02:21:38.307Z,0.00
2018-09-23T02:22:38.280Z,0.00
2018-09-23T02:23:38.254Z,0.00
2018-09-23T02:24:38.279Z,0.00
2018-09-23T02:25:38.234Z,0.00
2018-09-23T02:26:38.219Z,0.00
2018-09-23T02:27:38.277Z,0.00
2018-09-23T02:28:38.201Z,0.00
2018-09-23T02:29:38.198Z,0.00
2018-09-23T02:30:38.182Z,0.00
2018-09-23T02:31:38.186Z,0.00
2018-09-23T02:32:38.171Z,0.00
2018-09-23T02:33:38.153Z,0.00
2018-09-23T02:34:38.161Z,0.00
2018-09-23T02:35:38.135Z,0.00
2018-09-23T02:36:38.120Z,0.00
2018-09-23T02:37:38.178Z,0.00
2018-09-23T02:38:38.097Z,0.00
2018-09-23T02:39:38.084Z,0.00
2018-09-23T02:40:38.078Z,0.00
2018-09-23T02:41:38.065Z,0.00
2018-09-23T02:42:38.089Z,0.00
2018-09-23T02:43:38.064Z,0.00
2018-09-23T02:44:38.031Z,0.00
2018-09-23T02:45:38.074Z,0.00
2018-09-23T02:46:38.013Z,0.00
2018-09-23T02:47:38.013Z,0.00
2018-09-23T02:48:38.023Z,0.00
2018-09-23T02:49:38.006Z,0.00
2018-09-23T02:50:37.969Z,0.00
2018-09-23T02:51:38.037Z,0.00
2018-09-23T02:52:37.944Z,0.00
2018-09-23T02:53:37.955Z,0.00
2018-09-23T02:54:37.931Z,0.00
2018-09-23T02:55:37.953Z,0.00
2018-09-23T02:56:37.904Z,0.00
2018-09-23T02:57:37.901Z,0.00
2018-09-23T02:58:37.899Z,0.00
2018-09-23T02:59:37.877Z,0.00
2018-09-23T03:00:37.862Z,0.00
2018-09-23T03:01:37.893Z,0.00
2018-09-23T03:02:37.840Z,0.00
2018-09-23T03:03:37.847Z,0.00
2018-09-23T03:04:37.823Z,0.00
2018-09-23T03:05:37.814Z,0.00
2018-09-23T03:06:37.801Z,0.00
2018-09-23T03:07:37.852Z,0.00
2018-09-23T03:08:37.792Z,0.00
2018-09-23T03:09:37.774Z,0.00
2018-09-23T03:10:37.761Z,0.00
2018-09-23T03:11:37.749Z,0.00
2018-09-23T03:12:37.740Z,0.00
2018-09-23T03:13:37.770Z,0.00
2018-09-23T03:14:37.718Z,0.00
2018-09-23T03:15:37.705Z,0.00
2018-09-23T03:16:37.694Z,0.00
2018-09-23T03:17:37.681Z,0.00
2018-09-23T03:18:37.697Z,0.00
2018-09-23T03:19:37.685Z,0.00
2018-09-23T03:20:37.650Z,0.00
2018-09-23T03:21:37.637Z,0.00
2018-09-23T03:22:37.628Z,0.00
2018-09-23T03:23:37.615Z,0.00
2018-09-23T03:24:37.628Z,0.00
2018-09-23T03:25:37.619Z,0.00
2018-09-23T03:26:37.585Z,0.00
2018-09-23T03:27:37.574Z,0.00
2018-09-23T03:28:37.564Z,0.00
2018-09-23T03:29:37.565Z,0.00
2018-09-23T03:30:37.552Z,0.00
2018-09-23T03:31:37.571Z,0.00
2018-09-23T03:32:37.521Z,0.00
2018-09-23T03:33:37.529Z,0.00
2018-09-23T03:34:37.512Z,0.00
2018-09-23T03:35:37.489Z,0.00
2018-09-23T03:36:37.480Z,0.00
2018-09-23T03:37:37.497Z,0.00
2018-09-23T03:38:37.463Z,0.00
2018-09-23T03:39:37.467Z,0.00
2018-09-23T03:40:37.437Z,0.00
2018-09-23T03:41:37.431Z,0.00
2018-09-23T03:42:37.422Z,0.00
2018-09-23T03:43:37.433Z,0.00
2018-09-23T03:44:37.408Z,0.00
2018-09-23T03:45:37.383Z,0.00
2018-09-23T03:46:37.372Z,0.00
2018-09-23T03:47:37.361Z,0.00
2018-09-23T03:48:37.352Z,0.00
2018-09-23T03:49:37.383Z,0.00
2018-09-23T03:50:37.332Z,0.00
2018-09-23T03:51:37.322Z,0.00
2018-09-23T03:52:37.306Z,0.00
2018-09-23T03:53:37.316Z,0.00
2018-09-23T03:54:37.306Z,0.00
2018-09-23T03:55:37.330Z,0.00
2018-09-23T03:56:37.270Z,0.00
2018-09-23T03:57:37.253Z,0.00
2018-09-23T03:58:37.246Z,0.00
2018-09-23T03:59:37.246Z,0.00
2018-09-23T04:00:37.223Z,0.00
2018-09-23T04:01:37.239Z,0.00
2018-09-23T04:02:37.204Z,0.00
2018-09-23T04:03:37.191Z,0.00
2018-09-23T04:04:37.198Z,0.00
2018-09-23T04:05:37.174Z,0.00
2018-09-23T04:06:37.158Z,0.00
2018-09-23T04:07:37.186Z,0.00
2018-09-23T04:08:37.137Z,0.00
2018-09-23T04:09:37.142Z,0.00
2018-09-23T04:10:37.115Z,0.00
2018-09-23T04:11:37.104Z,0.00
2018-09-23T04:12:37.094Z,0.00
2018-09-23T04:13:37.152Z,0.00
2018-09-23T04:14:37.086Z,0.00
2018-09-23T04:15:37.063Z,0.00
2018-09-23T04:16:37.050Z,0.00
2018-09-23T04:17:37.042Z,0.00
2018-09-23T04:18:37.029Z,0.00
2018-09-23T04:19:37.072Z,0.00
2018-09-23T04:20:37.006Z,0.00
2018-09-23T04:21:36.997Z,0.00
2018-09-23T04:22:36.987Z,0.00
2018-09-23T04:23:36.975Z,0.00
2018-09-23T04:24:36.979Z,0.00
2018-09-23T04:25:37.011Z,0.00
2018-09-23T04:26:36.940Z,0.00
2018-09-23T04:27:36.932Z,0.00
2018-09-23T04:28:36.923Z,0.00
2018-09-23T04:29:36.929Z,0.00
2018-09-23T04:30:36.897Z,0.00
2018-09-23T04:31:37.000Z,0.00
2018-09-23T04:32:36.879Z,0.00
2018-09-23T04:33:36.869Z,0.00
2018-09-23T04:34:36.874Z,0.00
2018-09-23T04:35:36.849Z,0.00
2018-09-23T04:36:36.838Z,0.00
2018-09-23T04:37:36.916Z,0.00
2018-09-23T04:38:36.830Z,0.00
2018-09-23T04:39:36.816Z,0.00
2018-09-23T04:40:36.799Z,0.00
2018-09-23T04:41:36.780Z,0.00
2018-09-23T04:42:36.773Z,0.00
2018-09-23T04:43:36.790Z,0.00
2018-09-23T04:44:36.764Z,0.00
2018-09-23T04:45:36.735Z,0.00
2018-09-23T04:46:36.724Z,0.00
2018-09-23T04:47:36.714Z,0.00
2018-09-23T04:48:36.702Z,0.00
2018-09-23T04:49:36.732Z,0.00
2018-09-23T04:50:36.679Z,4.00
2018-09-23T04:51:36.682Z,0.00
2018-09-23T04:52:36.660Z,4.00
2018-09-23T04:53:36.646Z,4.00
2018-09-23T04:54:36.696Z,4.00
2018-09-23T04:55:36.657Z,8.00
2018-09-23T04:56:36.617Z,8.00
2018-09-23T04:57:36.604Z,12.00
2018-09-23T04:58:36.591Z,16.00
2018-09-23T04:59:36.615Z,16.00
2018-09-23T05:00:36.568Z,16.00
2018-09-23T05:01:36.590Z,24.00
2018-09-23T05:02:36.545Z,32.00
2018-09-23T05:03:36.537Z,32.00
2018-09-23T05:04:36.527Z,32.00
2018-09-23T05:05:36.528Z,40.00
2018-09-23T05:06:36.501Z,44.00
2018-09-23T05:07:36.525Z,56.00
2018-09-23T05:08:36.572Z,64.00
2018-09-23T05:09:36.474Z,68.00
2018-09-23T05:10:36.510Z,76.00
2018-09-23T05:11:36.450Z,84.00
2018-09-23T05:12:36.443Z,92.00
2018-09-23T05:13:36.453Z,104.00
2018-09-23T05:14:36.415Z,104.00
2018-09-23T05:15:36.417Z,104.00
2018-09-23T05:16:36.392Z,104.00
2018-09-23T05:17:36.382Z,108.00
2018-09-23T05:18:36.371Z,124.00
2018-09-23T05:19:36.384Z,132.00
2018-09-23T05:20:36.361Z,156.00
2018-09-23T05:21:36.349Z,176.00
2018-09-23T05:22:36.326Z,180.00
2018-09-23T05:23:36.319Z,192.00
2018-09-23T05:24:36.304Z,228.00
2018-09-23T05:25:36.336Z,272.00
2018-09-23T05:26:36.281Z,296.00
2018-09-23T05:27:36.270Z,332.00
2018-09-23T05:28:36.283Z,364.00
2018-09-23T05:29:36.250Z,364.00
2018-09-23T05:30:36.268Z,384.00
2018-09-23T05:31:36.265Z,480.00
2018-09-23T05:32:36.216Z,540.00
2018-09-23T05:33:36.220Z,636.00
2018-09-23T05:34:36.195Z,812.00
2018-09-23T05:35:36.198Z,852.00
2018-09-23T05:36:36.211Z,856.00
2018-09-23T05:37:36.165Z,1004.00
2018-09-23T05:38:36.152Z,1136.00
2018-09-23T05:39:36.140Z,1148.00
2018-09-23T05:40:36.143Z,1032.00
2018-09-23T05:41:36.124Z,1208.00
2018-09-23T05:42:36.137Z,1540.00
2018-09-23T05:43:36.101Z,1704.00
2018-09-23T05:44:36.087Z,1600.00
2018-09-23T05:45:36.089Z,1264.00
2018-09-23T05:46:36.070Z,1048.00
2018-09-23T05:47:36.051Z,864.00
2018-09-23T05:48:36.073Z,740.00
2018-09-23T05:49:36.054Z,760.00
2018-09-23T05:50:36.039Z,764.00
2018-09-23T05:51:36.009Z,708.00
2018-09-23T05:52:36.000Z,772.00
2018-09-23T05:53:35.992Z,900.00
2018-09-23T05:54:36.019Z,896.00
2018-09-23T05:55:35.982Z,924.00
2018-09-23T05:56:35.956Z,912.00
2018-09-23T05:57:35.945Z,860.00
2018-09-23T05:58:35.935Z,932.00
2018-09-23T05:59:35.929Z,948.00
2018-09-23T06:00:35.955Z,1132.00
2018-09-23T06:01:35.904Z,1240.00
2018-09-23T06:02:35.892Z,1088.00
2018-09-23T06:03:35.885Z,972.00
2018-09-23T06:04:35.878Z,888.00
2018-09-23T06:05:35.886Z,872.00
2018-09-23T06:06:35.867Z,960.00
2018-09-23T06:07:35.834Z,956.00
2018-09-23T06:08:35.827Z,852.00
2018-09-23T06:09:35.815Z,816.00
2018-09-23T06:10:35.806Z,840.00
2018-09-23T06:11:35.809Z,812.00
2018-09-23T06:12:35.898Z,920.00
2018-09-23T06:13:35.772Z,1008.00
2018-09-23T06:14:35.759Z,1012.00
2018-09-23T06:15:35.789Z,1096.00
2018-09-23T06:16:35.757Z,1048.00
2018-09-23T06:17:35.731Z,948.00
2018-09-23T06:18:35.807Z,1056.00
2018-09-23T06:19:35.764Z,1144.00
2018-09-23T06:20:35.695Z,1400.00
2018-09-23T06:21:35.704Z,1804.00
2018-09-23T06:22:35.678Z,2560.00
2018-09-23T06:23:35.674Z,2864.00
2018-09-23T06:24:35.658Z,2612.00
2018-09-23T06:25:35.642Z,2060.00
2018-09-23T06:26:35.690Z,1764.00
2018-09-23T06:27:35.615Z,1656.00
2018-09-23T06:28:35.619Z,1556.00
2018-09-23T06:29:35.597Z,1588.00
2018-09-23T06:30:35.593Z,1752.00
2018-09-23T06:31:35.595Z,1888.00
2018-09-23T06:32:35.590Z,1992.00
2018-09-23T06:33:35.551Z,1840.00
2018-09-23T06:34:35.544Z,1764.00
2018-09-23T06:35:35.535Z,2140.00
2018-09-23T06:36:35.528Z,2440.00
2018-09-23T06:37:35.514Z,2248.00
2018-09-23T06:38:35.520Z,2196.00
2018-09-23T06:39:35.489Z,2324.00
2018-09-23T06:40:35.475Z,2424.00
2018-09-23T06:41:35.489Z,2412.00
2018-09-23T06:42:35.448Z,2472.00
2018-09-23T06:43:35.438Z,3056.00
2018-09-23T06:44:35.459Z,3648.00
2018-09-23T06:45:35.439Z,3816.00
2018-09-23T06:46:35.409Z,4176.00
2018-09-23T06:47:35.412Z,4028.00
2018-09-23T06:48:35.387Z,4180.00
2018-09-23T06:49:35.374Z,4600.00
2018-09-23T06:50:35.392Z,5680.00
2018-09-23T06:51:35.354Z,6016.00
2018-09-23T06:52:35.353Z,5124.00
2018-09-23T06:53:35.330Z,4760.00
2018-09-23T06:54:35.319Z,4892.00
2018-09-23T06:55:35.311Z,5264.00
2018-09-23T06:56:35.334Z,6040.00
2018-09-23T06:57:35.327Z,7216.00
2018-09-23T06:58:35.276Z,6648.00
2018-09-23T06:59:35.262Z,5756.00
2018-09-23T07:00:35.280Z,5520.00
2018-09-23T07:01:35.243Z,5744.00
2018-09-23T07:02:35.243Z,6960.00
2018-09-23T07:03:35.250Z,7876.00
2018-09-23T07:04:35.259Z,7988.00
2018-09-23T07:05:35.199Z,7420.00
2018-09-23T07:06:35.183Z,6348.00
2018-09-23T07:07:35.195Z,6144.00
2018-09-23T07:08:35.164Z,6116.00
2018-09-23T07:09:35.153Z,6848.00
2018-09-23T07:10:35.222Z,7716.00
2018-09-23T07:11:35.132Z,8000.00
2018-09-23T07:12:35.136Z,7920.00
2018-09-23T07:13:35.139Z,8132.00
2018-09-23T07:14:35.101Z,7776.00
2018-09-23T07:15:35.087Z,8004.00
2018-09-23T07:16:35.169Z,8040.00
2018-09-23T07:17:35.081Z,7808.00
2018-09-23T07:18:35.065Z,7940.00
2018-09-23T07:19:35.046Z,8564.00
2018-09-23T07:20:35.032Z,9696.00
2018-09-23T07:21:35.024Z,10340.00
2018-09-23T07:22:35.025Z,9680.00
2018-09-23T07:23:35.086Z,9628.00
2018-09-23T07:24:34.997Z,11636.00
2018-09-23T07:25:34.997Z,16512.00
2018-09-23T07:26:34.978Z,16928.00
2018-09-23T07:27:34.983Z,15024.00
2018-09-23T07:28:34.950Z,12740.00
2018-09-23T07:29:34.945Z,11268.00
2018-09-23T07:30:34.966Z,11408.00
2018-09-23T07:31:34.923Z,12916.00
2018-09-23T07:32:34.956Z,11264.00
2018-09-23T07:33:34.895Z,10432.00
2018-09-23T07:34:34.887Z,11736.00
2018-09-23T07:35:34.878Z,12116.00
2018-09-23T07:36:34.923Z,10084.00
2018-09-23T07:37:34.858Z,9324.00
2018-09-23T07:38:34.865Z,8472.00
2018-09-23T07:39:34.850Z,7744.00
2018-09-23T07:40:34.857Z,8072.00
2018-09-23T07:41:34.820Z,7660.00
2018-09-23T07:42:34.801Z,7988.00
2018-09-23T07:43:34.827Z,9180.00
2018-09-23T07:44:34.775Z,9704.00
2018-09-23T07:45:34.772Z,9532.00
2018-09-23T07:46:34.770Z,9608.00
2018-09-23T07:47:34.748Z,9240.00
2018-09-23T07:48:34.783Z,10664.00
2018-09-23T07:49:34.724Z,10728.00
2018-09-23T07:50:34.706Z,9724.00
2018-09-23T07:51:34.738Z,8592.00
2018-09-23T07:52:34.722Z,7244.00
2018-09-23T07:53:34.695Z,6692.00
2018-09-23T07:54:34.672Z,5892.00
2018-09-23T07:55:34.717Z,5308.00
2018-09-23T07:56:34.715Z,5636.00
2018-09-23T07:57:34.643Z,5076.00
2018-09-23T07:58:34.720Z,5024.00
2018-09-23T07:59:34.612Z,6496.00
2018-09-23T08:00:34.601Z,7628.00
2018-09-23T08:01:34.588Z,8920.00
2018-09-23T08:02:34.581Z,9836.00
2018-09-23T08:03:34.690Z,10180.00
2018-09-23T08:04:34.609Z,8632.00
2018-09-23T08:05:34.547Z,8740.00
2018-09-23T08:06:34.533Z,10528.00
2018-09-23T08:07:34.525Z,11924.00
2018-09-23T08:08:34.532Z,11676.00
2018-09-23T08:09:34.501Z,11752.00
2018-09-23T08:10:34.532Z,10740.00
2018-09-23T08:11:34.481Z,11116.00
2018-09-23T08:12:34.567Z,10880.00
2018-09-23T08:13:34.572Z,11724.00
2018-09-23T08:14:34.947Z,12976.00
2018-09-23T08:15:34.450Z,16864.00
2018-09-23T08:16:34.470Z,17088.00
2018-09-23T08:17:34.414Z,15376.00
2018-09-23T08:18:34.409Z,14028.00
2018-09-23T08:19:34.485Z,12036.00
2018-09-23T08:20:34.451Z,12892.00
2018-09-23T08:21:34.377Z,14280.00
2018-09-23T08:22:34.420Z,16768.00
2018-09-23T08:23:34.352Z,18304.00
2018-09-23T08:24:34.355Z,17536.00
2018-09-23T08:25:34.370Z,14116.00
2018-09-23T08:26:34.358Z,14632.00
2018-09-23T08:27:34.345Z,15200.00
2018-09-23T08:28:34.304Z,16992.00
2018-09-23T08:29:34.305Z,17216.00
2018-09-23T08:30:34.282Z,15856.00
2018-09-23T08:31:34.311Z,17248.00
2018-09-23T08:32:34.265Z,19520.00
2018-09-23T08:33:34.243Z,23520.00
2018-09-23T08:34:34.295Z,21760.00
2018-09-23T08:35:34.223Z,20032.00
2018-09-23T08:36:34.213Z,16704.00
2018-09-23T08:37:34.207Z,11884.00
2018-09-23T08:38:34.196Z,10488.00
2018-09-23T08:39:34.193Z,10332.00
2018-09-23T08:40:34.167Z,9128.00
2018-09-23T08:41:34.176Z,9844.00
2018-09-23T08:42:34.157Z,9216.00
2018-09-23T08:43:34.133Z,10044.00
2018-09-23T08:44:34.138Z,10992.00
2018-09-23T08:45:34.112Z,12036.00
2018-09-23T08:46:34.103Z,15504.00
2018-09-23T08:47:34.125Z,17184.00
2018-09-23T08:48:34.086Z,18432.00
2018-09-23T08:49:34.099Z,19392.00
2018-09-23T08:50:34.057Z,21120.00
2018-09-23T08:51:34.070Z,28128.00
2018-09-23T08:52:34.036Z,29824.00
2018-09-23T08:53:34.048Z,44224.00
2018-09-23T08:54:34.014Z,29280.00
2018-09-23T08:55:34.050Z,32768.00
2018-09-23T08:56:33.994Z,70368.00
2018-09-23T08:57:33.991Z,35040.00
2018-09-23T08:58:33.970Z,26176.00
2018-09-23T08:59:33.982Z,24640.00
2018-09-23T09:00:33.968Z,23968.00
2018-09-23T09:01:33.941Z,26592.00
2018-09-23T09:02:33.932Z,19200.00
2018-09-23T09:03:33.980Z,22048.00
2018-09-23T09:04:33.910Z,63264.00
2018-09-23T09:05:33.939Z,28032.00
2018-09-23T09:06:33.885Z,31392.00
2018-09-23T09:07:33.897Z,68352.00
2018-09-23T09:08:33.863Z,24384.00
2018-09-23T09:09:33.855Z,35904.00
2018-09-23T09:10:33.880Z,52672.00
2018-09-23T09:11:33.880Z,22016.00
2018-09-23T09:12:33.821Z,18624.00
2018-09-23T09:13:33.842Z,20128.00
2018-09-23T09:14:33.802Z,21216.00
2018-09-23T09:15:33.804Z,19040.00
2018-09-23T09:16:33.778Z,12436.00
2018-09-23T09:17:33.781Z,13440.00
2018-09-23T09:18:33.857Z,14308.00
2018-09-23T09:19:33.746Z,13976.00
2018-09-23T09:20:33.751Z,11852.00
2018-09-23T09:21:33.724Z,11580.00
2018-09-23T09:22:33.716Z,11028.00
2018-09-23T09:23:33.716Z,10724.00
2018-09-23T09:24:33.691Z,10344.00
2018-09-23T09:25:33.694Z,12796.00
2018-09-23T09:26:33.770Z,11596.00
2018-09-23T09:27:33.660Z,12948.00
2018-09-23T09:28:33.652Z,12336.00
2018-09-23T09:29:33.661Z,11300.00
2018-09-23T09:30:33.640Z,13388.00
2018-09-23T09:31:33.619Z,13644.00
2018-09-23T09:32:33.607Z,15308.00
2018-09-23T09:33:33.598Z,13536.00
2018-09-23T09:34:33.587Z,13440.00
2018-09-23T09:35:33.614Z,13312.00
2018-09-23T09:36:33.569Z,12504.00
2018-09-23T09:37:33.559Z,14932.00
2018-09-23T09:38:33.564Z,17280.00
2018-09-23T09:39:33.536Z,15688.00
2018-09-23T09:40:33.538Z,14380.00
2018-09-23T09:41:33.745Z,15692.00
2018-09-23T09:42:33.504Z,21344.00
2018-09-23T09:43:33.491Z,18688.00
2018-09-23T09:44:33.486Z,19744.00
2018-09-23T09:45:33.488Z,21920.00
2018-09-23T09:46:33.472Z,24608.00
2018-09-23T09:47:33.465Z,22592.00
2018-09-23T09:48:33.437Z,22272.00
2018-09-23T09:49:33.436Z,24192.00
2018-09-23T09:50:33.440Z,22688.00
2018-09-23T09:51:33.405Z,24576.00
2018-09-23T09:52:33.407Z,21408.00
2018-09-23T09:53:33.471Z,17408.00
2018-09-23T09:54:33.377Z,14776.00
2018-09-23T09:55:33.363Z,12212.00
2018-09-23T09:56:33.364Z,10420.00
2018-09-23T09:57:33.340Z,10896.00
2018-09-23T09:58:33.329Z,12388.00
2018-09-23T09:59:33.343Z,12556.00
2018-09-23T10:00:33.308Z,15104.00
2018-09-23T10:01:33.312Z,16640.00
2018-09-23T10:02:33.287Z,18624.00
2018-09-23T10:03:33.275Z,17856.00
2018-09-23T10:04:33.265Z,17856.00
2018-09-23T10:05:33.285Z,17728.00
2018-09-23T10:06:33.257Z,18528.00
2018-09-23T10:07:33.234Z,14676.00
2018-09-23T10:08:33.221Z,13188.00
2018-09-23T10:09:33.210Z,14832.00
2018-09-23T10:10:33.199Z,15292.00
2018-09-23T10:11:33.249Z,13356.00
2018-09-23T10:12:33.189Z,16704.00
2018-09-23T10:13:33.172Z,15100.00
2018-09-23T10:14:33.157Z,17216.00
2018-09-23T10:15:33.146Z,16268.00
2018-09-23T10:16:33.154Z,15268.00
2018-09-23T10:17:33.160Z,20288.00
2018-09-23T10:18:33.117Z,18688.00
2018-09-23T10:19:33.108Z,17888.00
2018-09-23T10:20:33.097Z,18752.00
2018-09-23T10:21:33.096Z,19808.00
2018-09-23T10:22:33.135Z,16896.00
2018-09-23T10:23:33.220Z,18624.00
2018-09-23T10:24:33.052Z,17344.00
2018-09-23T10:25:33.040Z,15748.00
2018-09-23T10:26:33.043Z,15320.00
2018-09-23T10:27:33.018Z,14424.00
2018-09-23T10:28:33.058Z,11820.00
2018-09-23T10:29:33.022Z,12824.00
2018-09-23T10:30:32.987Z,9780.00
2018-09-23T10:31:33.043Z,12912.00
2018-09-23T10:32:32.966Z,16244.00
2018-09-23T10:33:32.958Z,19072.00
2018-09-23T10:34:32.948Z,31136.00
2018-09-23T10:35:32.968Z,13776.00
2018-09-23T10:36:32.955Z,14956.00
2018-09-23T10:37:32.911Z,13940.00
2018-09-23T10:38:32.899Z,10832.00
2018-09-23T10:39:32.892Z,13640.00
2018-09-23T10:40:32.879Z,12056.00
2018-09-23T10:41:33.005Z,14176.00
2018-09-23T10:42:32.857Z,15460.00
2018-09-23T10:43:32.845Z,26848.00
2018-09-23T10:44:32.871Z,23584.00
2018-09-23T10:45:32.828Z,15368.00
2018-09-23T10:46:32.841Z,16704.00
2018-09-23T10:47:32.902Z,17984.00
2018-09-23T10:48:32.793Z,13456.00
2018-09-23T10:49:32.782Z,12172.00
2018-09-23T10:50:32.771Z,21056.00
2018-09-23T10:51:32.768Z,19776.00
2018-09-23T10:52:32.762Z,25056.00
2018-09-23T10:53:32.777Z,25952.00
2018-09-23T10:54:32.731Z,21216.00
2018-09-23T10:55:32.770Z,23872.00
2018-09-23T10:56:32.708Z,22944.00
2018-09-23T10:57:32.713Z,23552.00
2018-09-23T10:58:32.703Z,21440.00
2018-09-23T10:59:32.773Z,27360.00
2018-09-23T11:00:32.666Z,26528.00
2018-09-23T11:01:32.653Z,17408.00
2018-09-23T11:02:32.658Z,25088.00
2018-09-23T11:03:32.644Z,24736.00
2018-09-23T11:04:32.628Z,22944.00
2018-09-23T11:05:32.627Z,25984.00
2018-09-23T11:06:32.600Z,30240.00
2018-09-23T11:07:32.658Z,33152.00
2018-09-23T11:08:32.581Z,23712.00
2018-09-23T11:09:32.572Z,52416.00
2018-09-23T11:10:32.558Z,21952.00
2018-09-23T11:11:32.573Z,23584.00
2018-09-23T11:12:32.555Z,19008.00
2018-09-23T11:13:32.527Z,22368.00
2018-09-23T11:14:32.514Z,66208.00
2018-09-23T11:15:32.508Z,32096.00
2018-09-23T11:16:32.496Z,23968.00
2018-09-23T11:17:32.529Z,19232.00
2018-09-23T11:18:32.472Z,75648.00
2018-09-23T11:19:32.462Z,75776.00
2018-09-23T11:20:32.451Z,15960.00
2018-09-23T11:21:32.443Z,73536.00
2018-09-23T11:22:32.442Z,29216.00
2018-09-23T11:23:32.488Z,15160.00
2018-09-23T11:24:32.418Z,18720.00
2018-09-23T11:25:32.396Z,24256.00
2018-09-23T11:26:32.386Z,13176.00
2018-09-23T11:27:32.390Z,36992.00
2018-09-23T11:28:32.386Z,24544.00
2018-09-23T11:29:32.354Z,51072.00
2018-09-23T11:30:32.359Z,37472.00
2018-09-23T11:31:32.333Z,66976.00
2018-09-23T11:32:32.344Z,21696.00
2018-09-23T11:33:32.314Z,23968.00
2018-09-23T11:34:32.364Z,75744.00
2018-09-23T11:35:32.290Z,27936.00
2018-09-23T11:36:32.285Z,27168.00
2018-09-23T11:37:32.287Z,27392.00
2018-09-23T11:38:32.258Z,24256.00
2018-09-23T11:39:32.249Z,22432.00
2018-09-23T11:40:32.286Z,20864.00
2018-09-23T11:41:32.227Z,22432.00
2018-09-23T11:42:32.234Z,25504.00
2018-09-23T11:43:32.205Z,15200.00
2018-09-23T11:44:32.195Z,18688.00
2018-09-23T11:45:32.185Z,29312.00
2018-09-23T11:46:32.192Z,20064.00
2018-09-23T11:47:32.178Z,21760.00
2018-09-23T11:48:32.153Z,23648.00
2018-09-23T11:49:32.141Z,24384.00
2018-09-23T11:50:32.134Z,21888.00
2018-09-23T11:51:32.121Z,27040.00
2018-09-23T11:52:32.145Z,25920.00
2018-09-23T11:53:32.102Z,23744.00
2018-09-23T11:54:32.089Z,20000.00
2018-09-23T11:55:32.081Z,22304.00
2018-09-23T11:56:32.068Z,20704.00
2018-09-23T11:57:32.088Z,21728.00
2018-09-23T11:58:32.071Z,25696.00
2018-09-23T11:59:32.038Z,25248.00
2018-09-23T12:00:32.028Z,29568.00
2018-09-23T12:01:32.025Z,28384.00
2018-09-23T12:02:32.049Z,20000.00
2018-09-23T12:03:32.026Z,24544.00
2018-09-23T12:04:32.120Z,20928.00
2018-09-23T12:05:32.108Z,20032.00
2018-09-23T12:06:31.961Z,21664.00
2018-09-23T12:07:31.950Z,21760.00
2018-09-23T12:08:31.976Z,24608.00
2018-09-23T12:09:31.932Z,27008.00
2018-09-23T12:10:31.928Z,33248.00
2018-09-23T12:11:31.923Z,33632.00
2018-09-23T12:12:31.898Z,33376.00
2018-09-23T12:13:31.901Z,29664.00
2018-09-23T12:14:31.878Z,27328.00
2018-09-23T12:15:31.871Z,27968.00
2018-09-23T12:16:31.854Z,26176.00
2018-09-23T12:17:31.866Z,27840.00
2018-09-23T12:18:31.850Z,28864.00
2018-09-23T12:19:31.825Z,25600.00
2018-09-23T12:20:31.818Z,25312.00
2018-09-23T12:21:31.807Z,23552.00
2018-09-23T12:22:31.793Z,21024.00
2018-09-23T12:23:31.825Z,21664.00
2018-09-23T12:24:31.772Z,22592.00
2018-09-23T12:25:31.832Z,21856.00
2018-09-23T12:26:31.756Z,22272.00